sensor_id;sensor_type;location;lat;lon;timestamp;P1;durP1;ratioP1;P2;durP2;ratioP2
66095;SDS011;53861;53.422;14.530;2022-08-01T00:00:09;5.97;;;2.10;;
66095;SDS011;53861;53.422;14.530;2022-08-01T00:02:37;4.10;;;2.00;;
66095;SDS011;53861;53.422;14.530;2022-08-01T00:05:07;6.90;;;2.20;;
66095;SDS011;53861;53.422;14.530;2022-08-01T00:07:36;3.45;;;1.90;;
66095;SDS011;53861;53.422;14.530;2022-08-01T00:10:04;5.65;;;1.98;;
66095;SDS011;53861;53.422;14.530;2022-08-01T00:12:33;5.57;;;1.90;;
66095;SDS011;53861;53.422;14.530;2022-08-01T00:15:01;3.33;;;1.80;;
66095;SDS011;53861;53.422;14.530;2022-08-01T00:17:29;4.80;;;1.65;;
66095;SDS011;53861;53.422;14.530;2022-08-01T00:19:56;6.57;;;2.10;;
66095;SDS011;53861;53.422;14.530;2022-08-01T00:22:25;4.15;;;1.75;;
66095;SDS011;53861;53.422;14.530;2022-08-01T00:24:53;3.85;;;1.80;;
66095;SDS011;53861;53.422;14.530;2022-08-01T00:27:20;3.45;;;1.60;;
66095;SDS011;53861;53.422;14.530;2022-08-01T00:29:48;5.72;;;1.83;;
66095;SDS011;53861;53.422;14.530;2022-08-01T00:32:16;7.35;;;1.83;;
66095;SDS011;53861;53.422;14.530;2022-08-01T00:34:43;4.85;;;1.90;;
66095;SDS011;53861;53.422;14.530;2022-08-01T00:37:11;7.20;;;1.88;;
66095;SDS011;53861;53.422;14.530;2022-08-01T00:39:40;5.93;;;1.95;;
66095;SDS011;53861;53.422;14.530;2022-08-01T00:42:08;5.63;;;2.10;;
66095;SDS011;53861;53.422;14.530;2022-08-01T00:44:37;6.00;;;1.98;;
66095;SDS011;53861;53.422;14.530;2022-08-01T00:47:05;4.20;;;1.83;;
66095;SDS011;53861;53.422;14.530;2022-08-01T00:49:33;4.43;;;1.90;;
66095;SDS011;53861;53.422;14.530;2022-08-01T00:52:01;2.97;;;1.63;;
66095;SDS011;53861;53.422;14.530;2022-08-01T00:54:30;5.47;;;2.00;;
66095;SDS011;53861;53.422;14.530;2022-08-01T00:57:00;4.72;;;1.80;;
66095;SDS011;53861;53.422;14.530;2022-08-01T00:59:27;5.40;;;1.70;;
66095;SDS011;53861;53.422;14.530;2022-08-01T01:01:54;5.80;;;1.90;;
66095;SDS011;53861;53.422;14.530;2022-08-01T01:04:22;7.22;;;1.80;;
66095;SDS011;53861;53.422;14.530;2022-08-01T01:06:53;3.78;;;1.92;;
66095;SDS011;53861;53.422;14.530;2022-08-01T01:09:27;6.55;;;2.00;;
66095;SDS011;53861;53.422;14.530;2022-08-01T01:12:05;9.45;;;2.50;;
66095;SDS011;53861;53.422;14.530;2022-08-01T01:14:44;4.20;;;2.10;;
66095;SDS011;53861;53.422;14.530;2022-08-01T01:17:21;6.55;;;2.00;;
66095;SDS011;53861;53.422;14.530;2022-08-01T01:19:54;4.97;;;2.10;;
66095;SDS011;53861;53.422;14.530;2022-08-01T01:22:28;4.68;;;2.03;;
66095;SDS011;53861;53.422;14.530;2022-08-01T01:25:17;4.40;;;2.00;;
66095;SDS011;53861;53.422;14.530;2022-08-01T01:27:57;8.27;;;2.20;;
66095;SDS011;53861;53.422;14.530;2022-08-01T01:30:36;4.82;;;2.05;;
66095;SDS011;53861;53.422;14.530;2022-08-01T01:33:08;5.65;;;2.08;;
66095;SDS011;53861;53.422;14.530;2022-08-01T01:35:38;6.13;;;2.20;;
66095;SDS011;53861;53.422;14.530;2022-08-01T01:38:14;4.18;;;2.03;;
66095;SDS011;53861;53.422;14.530;2022-08-01T01:40:47;4.47;;;2.05;;
66095;SDS011;53861;53.422;14.530;2022-08-01T01:43:17;3.88;;;1.88;;
66095;SDS011;53861;53.422;14.530;2022-08-01T01:45:50;5.63;;;1.85;;
66095;SDS011;53861;53.422;14.530;2022-08-01T01:48:19;3.00;;;1.75;;
66095;SDS011;53861;53.422;14.530;2022-08-01T01:50:48;5.57;;;2.08;;
66095;SDS011;53861;53.422;14.530;2022-08-01T01:53:19;8.00;;;1.70;;
66095;SDS011;53861;53.422;14.530;2022-08-01T01:55:54;3.72;;;1.98;;
66095;SDS011;53861;53.422;14.530;2022-08-01T01:58:41;7.43;;;1.90;;
66095;SDS011;53861;53.422;14.530;2022-08-01T02:01:11;7.68;;;2.08;;
66095;SDS011;53861;53.422;14.530;2022-08-01T02:03:39;5.45;;;2.00;;
66095;SDS011;53861;53.422;14.530;2022-08-01T02:06:08;7.07;;;2.20;;
66095;SDS011;53861;53.422;14.530;2022-08-01T02:08:36;8.70;;;2.03;;
66095;SDS011;53861;53.422;14.530;2022-08-01T02:11:05;4.95;;;2.40;;
66095;SDS011;53861;53.422;14.530;2022-08-01T02:13:50;8.40;;;2.10;;
66095;SDS011;53861;53.422;14.530;2022-08-01T02:16:22;9.23;;;1.90;;
66095;SDS011;53861;53.422;14.530;2022-08-01T02:18:52;9.10;;;2.40;;
66095;SDS011;53861;53.422;14.530;2022-08-01T02:21:22;9.63;;;2.20;;
66095;SDS011;53861;53.422;14.530;2022-08-01T02:23:53;4.15;;;2.10;;
66095;SDS011;53861;53.422;14.530;2022-08-01T02:26:22;6.10;;;2.00;;
66095;SDS011;53861;53.422;14.530;2022-08-01T02:28:52;9.40;;;2.42;;
66095;SDS011;53861;53.422;14.530;2022-08-01T02:31:25;9.43;;;2.38;;
66095;SDS011;53861;53.422;14.530;2022-08-01T02:33:58;3.78;;;1.80;;
66095;SDS011;53861;53.422;14.530;2022-08-01T02:36:28;4.82;;;2.10;;
66095;SDS011;53861;53.422;14.530;2022-08-01T02:39:02;5.50;;;2.00;;
66095;SDS011;53861;53.422;14.530;2022-08-01T02:41:33;5.63;;;2.03;;
66095;SDS011;53861;53.422;14.530;2022-08-01T02:44:06;6.07;;;1.90;;
66095;SDS011;53861;53.422;14.530;2022-08-01T02:46:38;6.07;;;2.25;;
66095;SDS011;53861;53.422;14.530;2022-08-01T02:49:10;5.18;;;2.30;;
66095;SDS011;53861;53.422;14.530;2022-08-01T02:51:38;10.63;;;2.60;;
66095;SDS011;53861;53.422;14.530;2022-08-01T02:54:08;6.18;;;2.20;;
66095;SDS011;53861;53.422;14.530;2022-08-01T02:56:36;4.90;;;2.25;;
66095;SDS011;53861;53.422;14.530;2022-08-01T02:59:07;11.68;;;2.80;;
66095;SDS011;53861;53.422;14.530;2022-08-01T03:01:41;8.55;;;2.40;;
66095;SDS011;53861;53.422;14.530;2022-08-01T03:04:10;6.68;;;2.00;;
66095;SDS011;53861;53.422;14.530;2022-08-01T03:06:39;8.15;;;2.30;;
66095;SDS011;53861;53.422;14.530;2022-08-01T03:09:08;7.90;;;2.60;;
66095;SDS011;53861;53.422;14.530;2022-08-01T03:11:37;5.82;;;2.30;;
66095;SDS011;53861;53.422;14.530;2022-08-01T03:14:08;10.15;;;2.45;;
66095;SDS011;53861;53.422;14.530;2022-08-01T03:16:38;7.97;;;2.65;;
66095;SDS011;53861;53.422;14.530;2022-08-01T03:19:09;11.05;;;2.47;;
66095;SDS011;53861;53.422;14.530;2022-08-01T03:21:38;6.57;;;2.30;;
66095;SDS011;53861;53.422;14.530;2022-08-01T03:24:07;6.00;;;2.50;;
66095;SDS011;53861;53.422;14.530;2022-08-01T03:26:38;6.72;;;2.30;;
66095;SDS011;53861;53.422;14.530;2022-08-01T03:29:09;6.90;;;2.47;;
66095;SDS011;53861;53.422;14.530;2022-08-01T03:31:40;9.00;;;2.40;;
66095;SDS011;53861;53.422;14.530;2022-08-01T03:34:13;13.10;;;5.20;;
66095;SDS011;53861;53.422;14.530;2022-08-01T03:36:42;7.25;;;2.80;;
66095;SDS011;53861;53.422;14.530;2022-08-01T03:39:13;7.40;;;2.70;;
66095;SDS011;53861;53.422;14.530;2022-08-01T03:41:45;9.00;;;3.75;;
66095;SDS011;53861;53.422;14.530;2022-08-01T03:44:18;6.85;;;2.95;;
66095;SDS011;53861;53.422;14.530;2022-08-01T03:46:52;7.72;;;3.22;;
66095;SDS011;53861;53.422;14.530;2022-08-01T03:49:28;7.82;;;2.70;;
66095;SDS011;53861;53.422;14.530;2022-08-01T03:51:58;7.00;;;2.60;;
66095;SDS011;53861;53.422;14.530;2022-08-01T03:54:30;7.40;;;3.10;;
66095;SDS011;53861;53.422;14.530;2022-08-01T03:57:00;7.45;;;2.70;;
66095;SDS011;53861;53.422;14.530;2022-08-01T03:59:29;7.82;;;2.78;;
66095;SDS011;53861;53.422;14.530;2022-08-01T04:01:56;12.02;;;2.90;;
66095;SDS011;53861;53.422;14.530;2022-08-01T04:04:26;7.63;;;2.92;;
66095;SDS011;53861;53.422;14.530;2022-08-01T04:06:55;6.65;;;2.80;;
66095;SDS011;53861;53.422;14.530;2022-08-01T04:09:22;6.75;;;2.70;;
66095;SDS011;53861;53.422;14.530;2022-08-01T04:11:50;11.88;;;2.90;;
66095;SDS011;53861;53.422;14.530;2022-08-01T04:14:17;11.43;;;3.00;;
66095;SDS011;53861;53.422;14.530;2022-08-01T04:16:45;7.35;;;2.63;;
66095;SDS011;53861;53.422;14.530;2022-08-01T04:19:13;10.98;;;3.00;;
66095;SDS011;53861;53.422;14.530;2022-08-01T04:21:42;11.30;;;3.03;;
66095;SDS011;53861;53.422;14.530;2022-08-01T04:24:10;12.52;;;2.70;;
66095;SDS011;53861;53.422;14.530;2022-08-01T04:26:41;10.10;;;3.45;;
66095;SDS011;53861;53.422;14.530;2022-08-01T04:29:12;11.73;;;3.22;;
66095;SDS011;53861;53.422;14.530;2022-08-01T04:31:45;8.50;;;3.37;;
66095;SDS011;53861;53.422;14.530;2022-08-01T04:34:15;13.50;;;3.30;;
66095;SDS011;53861;53.422;14.530;2022-08-01T04:36:48;11.07;;;3.25;;
66095;SDS011;53861;53.422;14.530;2022-08-01T04:39:18;11.20;;;3.65;;
66095;SDS011;53861;53.422;14.530;2022-08-01T04:41:47;11.13;;;3.15;;
66095;SDS011;53861;53.422;14.530;2022-08-01T04:44:17;13.15;;;3.22;;
66095;SDS011;53861;53.422;14.530;2022-08-01T04:46:44;15.55;;;3.60;;
66095;SDS011;53861;53.422;14.530;2022-08-01T04:49:14;17.00;;;7.07;;
66095;SDS011;53861;53.422;14.530;2022-08-01T04:51:55;10.57;;;5.05;;
66095;SDS011;53861;53.422;14.530;2022-08-01T04:54:25;14.60;;;3.60;;
66095;SDS011;53861;53.422;14.530;2022-08-01T04:56:54;11.07;;;3.50;;
66095;SDS011;53861;53.422;14.530;2022-08-01T04:59:25;9.43;;;3.60;;
66095;SDS011;53861;53.422;14.530;2022-08-01T05:02:11;6.15;;;3.20;;
66095;SDS011;53861;53.422;14.530;2022-08-01T05:04:40;7.60;;;3.08;;
66095;SDS011;53861;53.422;14.530;2022-08-01T05:07:11;10.93;;;3.30;;
66095;SDS011;53861;53.422;14.530;2022-08-01T05:09:39;14.43;;;3.00;;
66095;SDS011;53861;53.422;14.530;2022-08-01T05:12:08;7.20;;;2.70;;
66095;SDS011;53861;53.422;14.530;2022-08-01T05:14:36;13.52;;;3.10;;
66095;SDS011;53861;53.422;14.530;2022-08-01T05:17:04;8.23;;;3.30;;
66095;SDS011;53861;53.422;14.530;2022-08-01T05:19:33;6.25;;;2.95;;
66095;SDS011;53861;53.422;14.530;2022-08-01T05:22:04;7.85;;;3.20;;
66095;SDS011;53861;53.422;14.530;2022-08-01T05:24:38;10.75;;;3.15;;
66095;SDS011;53861;53.422;14.530;2022-08-01T05:27:08;11.52;;;2.95;;
66095;SDS011;53861;53.422;14.530;2022-08-01T05:29:35;8.40;;;2.90;;
66095;SDS011;53861;53.422;14.530;2022-08-01T05:32:03;8.88;;;2.60;;
66095;SDS011;53861;53.422;14.530;2022-08-01T05:34:31;5.88;;;2.83;;
66095;SDS011;53861;53.422;14.530;2022-08-01T05:36:59;10.43;;;2.92;;
66095;SDS011;53861;53.422;14.530;2022-08-01T05:39:27;6.63;;;2.78;;
66095;SDS011;53861;53.422;14.530;2022-08-01T05:41:56;8.07;;;3.83;;
66095;SDS011;53861;53.422;14.530;2022-08-01T05:44:23;6.97;;;2.70;;
66095;SDS011;53861;53.422;14.530;2022-08-01T05:46:51;8.77;;;3.00;;
66095;SDS011;53861;53.422;14.530;2022-08-01T05:49:19;5.47;;;2.70;;
66095;SDS011;53861;53.422;14.530;2022-08-01T05:51:47;7.88;;;3.10;;
66095;SDS011;53861;53.422;14.530;2022-08-01T05:54:15;14.80;;;3.10;;
66095;SDS011;53861;53.422;14.530;2022-08-01T05:56:42;9.73;;;2.97;;
66095;SDS011;53861;53.422;14.530;2022-08-01T05:59:11;12.75;;;3.58;;
66095;SDS011;53861;53.422;14.530;2022-08-01T06:01:39;11.50;;;3.53;;
66095;SDS011;53861;53.422;14.530;2022-08-01T06:04:07;16.75;;;3.75;;
66095;SDS011;53861;53.422;14.530;2022-08-01T06:06:36;11.00;;;3.20;;
66095;SDS011;53861;53.422;14.530;2022-08-01T06:09:06;8.38;;;2.88;;
66095;SDS011;53861;53.422;14.530;2022-08-01T06:11:34;11.48;;;3.13;;
66095;SDS011;53861;53.422;14.530;2022-08-01T06:14:02;11.10;;;3.10;;
66095;SDS011;53861;53.422;14.530;2022-08-01T06:16:31;9.07;;;3.58;;
66095;SDS011;53861;53.422;14.530;2022-08-01T06:19:00;9.43;;;3.45;;
66095;SDS011;53861;53.422;14.530;2022-08-01T06:21:27;6.22;;;3.17;;
66095;SDS011;53861;53.422;14.530;2022-08-01T06:23:55;12.35;;;3.45;;
66095;SDS011;53861;53.422;14.530;2022-08-01T06:26:24;5.10;;;2.83;;
66095;SDS011;53861;53.422;14.530;2022-08-01T06:28:51;7.35;;;2.67;;
66095;SDS011;53861;53.422;14.530;2022-08-01T06:31:20;9.57;;;3.17;;
66095;SDS011;53861;53.422;14.530;2022-08-01T06:33:51;7.07;;;2.88;;
66095;SDS011;53861;53.422;14.530;2022-08-01T06:36:27;8.02;;;2.47;;
66095;SDS011;53861;53.422;14.530;2022-08-01T06:38:55;12.85;;;3.35;;
66095;SDS011;53861;53.422;14.530;2022-08-01T06:41:24;7.05;;;2.95;;
66095;SDS011;53861;53.422;14.530;2022-08-01T06:43:51;17.60;;;3.88;;
66095;SDS011;53861;53.422;14.530;2022-08-01T06:46:19;12.90;;;3.08;;
66095;SDS011;53861;53.422;14.530;2022-08-01T06:48:47;8.90;;;3.08;;
66095;SDS011;53861;53.422;14.530;2022-08-01T06:51:17;9.10;;;3.15;;
66095;SDS011;53861;53.422;14.530;2022-08-01T06:53:48;13.98;;;2.95;;
66095;SDS011;53861;53.422;14.530;2022-08-01T06:56:17;15.95;;;3.20;;
66095;SDS011;53861;53.422;14.530;2022-08-01T06:58:46;9.02;;;3.05;;
66095;SDS011;53861;53.422;14.530;2022-08-01T07:01:15;8.32;;;3.33;;
66095;SDS011;53861;53.422;14.530;2022-08-01T07:03:43;11.90;;;3.72;;
66095;SDS011;53861;53.422;14.530;2022-08-01T07:06:13;12.32;;;3.00;;
66095;SDS011;53861;53.422;14.530;2022-08-01T07:08:43;8.20;;;3.08;;
66095;SDS011;53861;53.422;14.530;2022-08-01T07:11:11;16.15;;;3.65;;
66095;SDS011;53861;53.422;14.530;2022-08-01T07:13:39;12.38;;;3.90;;
66095;SDS011;53861;53.422;14.530;2022-08-01T07:16:08;9.10;;;3.00;;
66095;SDS011;53861;53.422;14.530;2022-08-01T07:18:36;8.40;;;3.03;;
66095;SDS011;53861;53.422;14.530;2022-08-01T07:21:03;10.15;;;3.45;;
66095;SDS011;53861;53.422;14.530;2022-08-01T07:23:32;9.93;;;3.30;;
66095;SDS011;53861;53.422;14.530;2022-08-01T07:26:02;7.65;;;2.97;;
66095;SDS011;53861;53.422;14.530;2022-08-01T07:28:30;6.72;;;3.17;;
66095;SDS011;53861;53.422;14.530;2022-08-01T07:30:58;6.97;;;2.63;;
66095;SDS011;53861;53.422;14.530;2022-08-01T07:33:26;7.15;;;3.00;;
66095;SDS011;53861;53.422;14.530;2022-08-01T07:35:53;12.30;;;3.40;;
66095;SDS011;53861;53.422;14.530;2022-08-01T07:38:21;9.95;;;3.35;;
66095;SDS011;53861;53.422;14.530;2022-08-01T07:40:52;7.38;;;3.20;;
66095;SDS011;53861;53.422;14.530;2022-08-01T07:43:20;10.48;;;3.22;;
66095;SDS011;53861;53.422;14.530;2022-08-01T07:45:48;7.03;;;3.40;;
66095;SDS011;53861;53.422;14.530;2022-08-01T07:48:15;12.00;;;3.50;;
66095;SDS011;53861;53.422;14.530;2022-08-01T07:50:45;13.00;;;3.50;;
66095;SDS011;53861;53.422;14.530;2022-08-01T07:53:13;7.47;;;3.60;;
66095;SDS011;53861;53.422;14.530;2022-08-01T07:55:41;8.85;;;3.63;;
66095;SDS011;53861;53.422;14.530;2022-08-01T07:58:09;11.52;;;4.25;;
66095;SDS011;53861;53.422;14.530;2022-08-01T08:00:37;7.63;;;3.75;;
66095;SDS011;53861;53.422;14.530;2022-08-01T08:03:05;10.07;;;3.58;;
66095;SDS011;53861;53.422;14.530;2022-08-01T08:05:33;9.00;;;4.18;;
66095;SDS011;53861;53.422;14.530;2022-08-01T08:08:06;9.68;;;4.07;;
66095;SDS011;53861;53.422;14.530;2022-08-01T08:10:36;12.05;;;4.38;;
66095;SDS011;53861;53.422;14.530;2022-08-01T08:13:04;7.68;;;3.80;;
66095;SDS011;53861;53.422;14.530;2022-08-01T08:15:33;8.75;;;3.70;;
66095;SDS011;53861;53.422;14.530;2022-08-01T08:18:02;7.22;;;3.60;;
66095;SDS011;53861;53.422;14.530;2022-08-01T08:20:30;9.02;;;3.60;;
66095;SDS011;53861;53.422;14.530;2022-08-01T08:22:58;10.73;;;3.65;;
66095;SDS011;53861;53.422;14.530;2022-08-01T08:25:25;7.47;;;4.20;;
66095;SDS011;53861;53.422;14.530;2022-08-01T08:27:54;8.95;;;4.55;;
66095;SDS011;53861;53.422;14.530;2022-08-01T08:30:22;8.38;;;3.95;;
66095;SDS011;53861;53.422;14.530;2022-08-01T08:32:51;7.82;;;4.25;;
66095;SDS011;53861;53.422;14.530;2022-08-01T08:35:20;9.77;;;4.30;;
66095;SDS011;53861;53.422;14.530;2022-08-01T08:37:47;7.78;;;4.50;;
66095;SDS011;53861;53.422;14.530;2022-08-01T08:40:15;11.30;;;4.93;;
66095;SDS011;53861;53.422;14.530;2022-08-01T08:42:42;10.80;;;4.95;;
66095;SDS011;53861;53.422;14.530;2022-08-01T08:45:13;10.63;;;4.85;;
66095;SDS011;53861;53.422;14.530;2022-08-01T08:47:41;14.38;;;4.75;;
66095;SDS011;53861;53.422;14.530;2022-08-01T08:50:13;10.85;;;5.13;;
66095;SDS011;53861;53.422;14.530;2022-08-01T08:52:41;7.95;;;4.50;;
66095;SDS011;53861;53.422;14.530;2022-08-01T08:55:11;10.70;;;5.57;;
66095;SDS011;53861;53.422;14.530;2022-08-01T08:57:42;14.60;;;6.22;;
66095;SDS011;53861;53.422;14.530;2022-08-01T09:00:11;13.90;;;5.50;;
66095;SDS011;53861;53.422;14.530;2022-08-01T09:02:41;14.05;;;7.15;;
66095;SDS011;53861;53.422;14.530;2022-08-01T09:05:09;14.68;;;7.70;;
66095;SDS011;53861;53.422;14.530;2022-08-01T09:07:39;17.60;;;7.72;;
66095;SDS011;53861;53.422;14.530;2022-08-01T09:10:07;20.00;;;9.05;;
66095;SDS011;53861;53.422;14.530;2022-08-01T09:12:36;16.73;;;8.80;;
66095;SDS011;53861;53.422;14.530;2022-08-01T09:15:04;14.98;;;8.20;;
66095;SDS011;53861;53.422;14.530;2022-08-01T09:17:41;16.88;;;8.00;;
66095;SDS011;53861;53.422;14.530;2022-08-01T09:20:09;14.93;;;7.78;;
66095;SDS011;53861;53.422;14.530;2022-08-01T09:22:51;17.67;;;8.40;;
66095;SDS011;53861;53.422;14.530;2022-08-01T09:25:19;17.48;;;8.18;;
66095;SDS011;53861;53.422;14.530;2022-08-01T09:27:46;14.18;;;7.43;;
66095;SDS011;53861;53.422;14.530;2022-08-01T09:30:15;18.55;;;8.52;;
66095;SDS011;53861;53.422;14.530;2022-08-01T09:32:54;17.38;;;8.32;;
66095;SDS011;53861;53.422;14.530;2022-08-01T09:35:22;22.52;;;8.82;;
66095;SDS011;53861;53.422;14.530;2022-08-01T09:37:52;20.30;;;8.70;;
66095;SDS011;53861;53.422;14.530;2022-08-01T09:40:53;15.70;;;9.00;;
66095;SDS011;53861;53.422;14.530;2022-08-01T09:43:26;19.10;;;9.38;;
66095;SDS011;53861;53.422;14.530;2022-08-01T09:45:55;18.23;;;9.00;;
66095;SDS011;53861;53.422;14.530;2022-08-01T09:48:23;18.70;;;9.20;;
66095;SDS011;53861;53.422;14.530;2022-08-01T09:50:51;17.25;;;8.50;;
66095;SDS011;53861;53.422;14.530;2022-08-01T09:53:21;17.17;;;8.32;;
66095;SDS011;53861;53.422;14.530;2022-08-01T09:55:49;24.70;;;8.50;;
66095;SDS011;53861;53.422;14.530;2022-08-01T09:58:18;16.73;;;9.20;;
66095;SDS011;53861;53.422;14.530;2022-08-01T10:00:57;18.95;;;9.55;;
66095;SDS011;53861;53.422;14.530;2022-08-01T10:03:26;15.90;;;9.18;;
66095;SDS011;53861;53.422;14.530;2022-08-01T10:05:55;15.60;;;8.23;;
66095;SDS011;53861;53.422;14.530;2022-08-01T10:08:25;15.82;;;8.55;;
66095;SDS011;53861;53.422;14.530;2022-08-01T10:13:39;16.48;;;8.13;;
66095;SDS011;53861;53.422;14.530;2022-08-01T10:16:07;19.45;;;9.18;;
66095;SDS011;53861;53.422;14.530;2022-08-01T10:18:36;21.83;;;9.25;;
66095;SDS011;53861;53.422;14.530;2022-08-01T10:21:08;18.92;;;8.80;;
66095;SDS011;53861;53.422;14.530;2022-08-01T10:23:43;17.52;;;9.30;;
66095;SDS011;53861;53.422;14.530;2022-08-01T10:26:12;17.80;;;9.40;;
66095;SDS011;53861;53.422;14.530;2022-08-01T10:28:41;20.60;;;8.95;;
66095;SDS011;53861;53.422;14.530;2022-08-01T10:31:11;16.55;;;8.35;;
66095;SDS011;53861;53.422;14.530;2022-08-01T10:33:39;18.75;;;9.70;;
66095;SDS011;53861;53.422;14.530;2022-08-01T10:36:07;19.48;;;9.38;;
66095;SDS011;53861;53.422;14.530;2022-08-01T10:38:35;15.02;;;8.88;;
66095;SDS011;53861;53.422;14.530;2022-08-01T10:41:06;15.77;;;8.70;;
66095;SDS011;53861;53.422;14.530;2022-08-01T10:43:35;20.92;;;9.15;;
66095;SDS011;53861;53.422;14.530;2022-08-01T10:46:04;15.73;;;8.30;;
66095;SDS011;53861;53.422;14.530;2022-08-01T10:48:34;17.90;;;8.55;;
66095;SDS011;53861;53.422;14.530;2022-08-01T10:51:10;15.10;;;8.32;;
66095;SDS011;53861;53.422;14.530;2022-08-01T10:53:38;18.38;;;9.00;;
66095;SDS011;53861;53.422;14.530;2022-08-01T10:56:14;23.92;;;9.20;;
66095;SDS011;53861;53.422;14.530;2022-08-01T10:58:43;23.17;;;10.35;;
66095;SDS011;53861;53.422;14.530;2022-08-01T11:01:14;23.63;;;11.43;;
66095;SDS011;53861;53.422;14.530;2022-08-01T11:04:05;24.27;;;11.48;;
66095;SDS011;53861;53.422;14.530;2022-08-01T11:06:49;21.98;;;10.40;;
66095;SDS011;53861;53.422;14.530;2022-08-01T11:09:24;25.65;;;11.55;;
66095;SDS011;53861;53.422;14.530;2022-08-01T11:12:00;26.95;;;13.05;;
66095;SDS011;53861;53.422;14.530;2022-08-01T11:14:31;21.90;;;10.23;;
66095;SDS011;53861;53.422;14.530;2022-08-01T11:20:09;17.33;;;7.68;;
66095;SDS011;53861;53.422;14.530;2022-08-01T11:28:39;14.43;;;8.55;;
66095;SDS011;53861;53.422;14.530;2022-08-01T11:33:55;13.30;;;8.43;;
66095;SDS011;53861;53.422;14.530;2022-08-01T11:36:27;15.07;;;9.23;;
66095;SDS011;53861;53.422;14.530;2022-08-01T11:39:11;15.75;;;8.15;;
66095;SDS011;53861;53.422;14.530;2022-08-01T11:41:44;13.70;;;7.63;;
66095;SDS011;53861;53.422;14.530;2022-08-01T11:44:16;13.35;;;8.10;;
66095;SDS011;53861;53.422;14.530;2022-08-01T11:46:49;13.02;;;7.45;;
66095;SDS011;53861;53.422;14.530;2022-08-01T11:49:23;13.80;;;7.70;;
66095;SDS011;53861;53.422;14.530;2022-08-01T11:54:28;13.98;;;8.40;;
66095;SDS011;53861;53.422;14.530;2022-08-01T11:56:57;14.55;;;7.35;;
66095;SDS011;53861;53.422;14.530;2022-08-01T11:59:27;17.70;;;8.05;;
66095;SDS011;53861;53.422;14.530;2022-08-01T12:01:55;12.85;;;8.40;;
66095;SDS011;53861;53.422;14.530;2022-08-01T12:04:23;17.05;;;8.55;;
66095;SDS011;53861;53.422;14.530;2022-08-01T12:06:50;14.63;;;8.13;;
66095;SDS011;53861;53.422;14.530;2022-08-01T12:09:18;14.63;;;8.15;;
66095;SDS011;53861;53.422;14.530;2022-08-01T12:11:47;12.75;;;8.85;;
66095;SDS011;53861;53.422;14.530;2022-08-01T12:14:18;15.77;;;8.80;;
66095;SDS011;53861;53.422;14.530;2022-08-01T12:16:54;13.27;;;8.82;;
66095;SDS011;53861;53.422;14.530;2022-08-01T12:19:22;16.05;;;8.57;;
66095;SDS011;53861;53.422;14.530;2022-08-01T12:22:10;11.38;;;8.38;;
66095;SDS011;53861;53.422;14.530;2022-08-01T12:24:43;16.08;;;8.48;;
66095;SDS011;53861;53.422;14.530;2022-08-01T12:27:11;14.93;;;9.38;;
66095;SDS011;53861;53.422;14.530;2022-08-01T12:29:51;15.52;;;8.05;;
66095;SDS011;53861;53.422;14.530;2022-08-01T12:32:25;12.45;;;8.10;;
66095;SDS011;53861;53.422;14.530;2022-08-01T12:34:55;17.33;;;9.82;;
66095;SDS011;53861;53.422;14.530;2022-08-01T12:37:25;10.82;;;7.60;;
66095;SDS011;53861;53.422;14.530;2022-08-01T12:39:55;11.75;;;7.90;;
66095;SDS011;53861;53.422;14.530;2022-08-01T12:42:24;11.07;;;7.85;;
66095;SDS011;53861;53.422;14.530;2022-08-01T12:44:52;15.50;;;8.43;;
66095;SDS011;53861;53.422;14.530;2022-08-01T12:47:21;11.07;;;7.22;;
66095;SDS011;53861;53.422;14.530;2022-08-01T12:49:51;11.70;;;7.10;;
66095;SDS011;53861;53.422;14.530;2022-08-01T12:52:19;10.63;;;6.95;;
66095;SDS011;53861;53.422;14.530;2022-08-01T12:57:36;8.57;;;6.03;;
66095;SDS011;53861;53.422;14.530;2022-08-01T13:00:11;12.68;;;6.53;;
66095;SDS011;53861;53.422;14.530;2022-08-01T13:02:45;9.38;;;6.10;;
66095;SDS011;53861;53.422;14.530;2022-08-01T13:05:15;11.18;;;6.13;;
66095;SDS011;53861;53.422;14.530;2022-08-01T13:07:44;11.32;;;6.45;;
66095;SDS011;53861;53.422;14.530;2022-08-01T13:10:14;11.90;;;6.28;;
66095;SDS011;53861;53.422;14.530;2022-08-01T13:12:52;12.07;;;5.78;;
66095;SDS011;53861;53.422;14.530;2022-08-01T13:15:22;12.38;;;5.78;;
66095;SDS011;53861;53.422;14.530;2022-08-01T13:17:52;12.68;;;6.20;;
66095;SDS011;53861;53.422;14.530;2022-08-01T13:20:25;18.98;;;5.75;;
66095;SDS011;53861;53.422;14.530;2022-08-01T13:25:47;12.02;;;5.50;;
66095;SDS011;53861;53.422;14.530;2022-08-01T13:28:20;9.30;;;5.38;;
66095;SDS011;53861;53.422;14.530;2022-08-01T13:30:51;12.30;;;5.20;;
66095;SDS011;53861;53.422;14.530;2022-08-01T13:33:23;13.38;;;4.80;;
66095;SDS011;53861;53.422;14.530;2022-08-01T13:35:58;7.82;;;4.80;;
66095;SDS011;53861;53.422;14.530;2022-08-01T13:38:26;7.82;;;4.35;;
66095;SDS011;53861;53.422;14.530;2022-08-01T13:41:14;8.25;;;4.60;;
66095;SDS011;53861;53.422;14.530;2022-08-01T13:43:42;10.27;;;4.47;;
66095;SDS011;53861;53.422;14.530;2022-08-01T13:46:10;9.65;;;4.65;;
66095;SDS011;53861;53.422;14.530;2022-08-01T13:48:38;9.65;;;5.50;;
66095;SDS011;53861;53.422;14.530;2022-08-01T13:51:07;8.23;;;3.92;;
66095;SDS011;53861;53.422;14.530;2022-08-01T13:53:36;6.22;;;3.88;;
66095;SDS011;53861;53.422;14.530;2022-08-01T13:56:03;10.18;;;3.83;;
66095;SDS011;53861;53.422;14.530;2022-08-01T13:58:31;5.15;;;3.17;;
66095;SDS011;53861;53.422;14.530;2022-08-01T14:00:58;9.20;;;3.50;;
66095;SDS011;53861;53.422;14.530;2022-08-01T14:03:26;8.35;;;3.28;;
66095;SDS011;53861;53.422;14.530;2022-08-01T14:05:53;14.60;;;4.70;;
66095;SDS011;53861;53.422;14.530;2022-08-01T14:08:22;6.18;;;3.35;;
66095;SDS011;53861;53.422;14.530;2022-08-01T14:10:49;7.03;;;3.97;;
66095;SDS011;53861;53.422;14.530;2022-08-01T14:13:17;7.30;;;4.10;;
66095;SDS011;53861;53.422;14.530;2022-08-01T14:15:45;8.43;;;4.28;;
66095;SDS011;53861;53.422;14.530;2022-08-01T14:18:12;7.60;;;4.72;;
66095;SDS011;53861;53.422;14.530;2022-08-01T14:20:40;8.52;;;5.07;;
66095;SDS011;53861;53.422;14.530;2022-08-01T14:23:08;10.32;;;5.05;;
66095;SDS011;53861;53.422;14.530;2022-08-01T14:25:38;9.55;;;5.10;;
66095;SDS011;53861;53.422;14.530;2022-08-01T14:28:07;8.20;;;5.70;;
66095;SDS011;53861;53.422;14.530;2022-08-01T14:30:34;13.07;;;5.47;;
66095;SDS011;53861;53.422;14.530;2022-08-01T14:33:02;9.88;;;6.10;;
66095;SDS011;53861;53.422;14.530;2022-08-01T14:35:29;8.85;;;5.63;;
66095;SDS011;53861;53.422;14.530;2022-08-01T14:37:57;8.13;;;5.75;;
66095;SDS011;53861;53.422;14.530;2022-08-01T14:40:24;13.45;;;7.25;;
66095;SDS011;53861;53.422;14.530;2022-08-01T14:42:53;17.65;;;9.43;;
66095;SDS011;53861;53.422;14.530;2022-08-01T14:45:21;25.75;;;11.20;;
66095;SDS011;53861;53.422;14.530;2022-08-01T14:47:48;33.20;;;15.63;;
66095;SDS011;53861;53.422;14.530;2022-08-01T14:50:16;32.25;;;14.10;;
66095;SDS011;53861;53.422;14.530;2022-08-01T14:52:44;20.10;;;10.95;;
66095;SDS011;53861;53.422;14.530;2022-08-01T14:55:12;38.33;;;17.15;;
66095;SDS011;53861;53.422;14.530;2022-08-01T14:57:40;26.05;;;11.02;;
66095;SDS011;53861;53.422;14.530;2022-08-01T15:00:09;16.83;;;8.95;;
66095;SDS011;53861;53.422;14.530;2022-08-01T15:02:39;23.13;;;9.50;;
66095;SDS011;53861;53.422;14.530;2022-08-01T15:05:06;14.90;;;8.27;;
66095;SDS011;53861;53.422;14.530;2022-08-01T15:07:35;13.52;;;7.15;;